createdAt,value
2018-11-10T00:01:48.215Z,101.70
2018-11-10T00:04:16.889Z,108.05
2018-11-10T00:06:45.468Z,180.42
2018-11-10T00:09:14.146Z,143.65
2018-11-10T00:11:42.792Z,169.82
2018-11-10T00:14:11.509Z,178.35
2018-11-10T00:16:40.136Z,178.57
2018-11-10T00:19:08.972Z,166.32
2018-11-10T00:21:37.583Z,184.97
2018-11-10T00:24:06.447Z,190.20
2018-11-10T00:26:36.038Z,119.82
2018-11-10T00:29:05.860Z,186.80
2018-11-10T00:31:34.554Z,147.55
2018-11-10T00:34:03.314Z,190.22
2018-11-10T00:36:31.925Z,119.13
2018-11-10T00:39:00.528Z,117.62
2018-11-10T00:41:29.192Z,119.25
2018-11-10T00:43:58.899Z,171.68
2018-11-10T00:46:27.843Z,144.00
2018-11-10T00:48:56.482Z,129.68
2018-11-10T00:51:26.250Z,140.30
2018-11-10T00:53:55.190Z,113.85
2018-11-10T00:56:25.149Z,89.32
2018-11-10T00:58:53.986Z,81.63
2018-11-10T01:01:23.187Z,128.38
2018-11-10T01:03:52.357Z,133.45
2018-11-10T01:06:21.123Z,135.45
2018-11-10T01:08:49.945Z,119.93
2018-11-10T01:11:18.734Z,138.47
2018-11-10T01:13:47.562Z,105.17
2018-11-10T01:16:16.346Z,89.07
2018-11-10T01:18:44.979Z,98.25
2018-11-10T01:21:14.571Z,67.90
2018-11-10T01:23:43.463Z,59.42
2018-11-10T01:26:12.602Z,58.52
2018-11-10T01:28:41.456Z,89.70
2018-11-10T01:31:10.983Z,69.80
2018-11-10T01:33:40.192Z,63.78
2018-11-10T01:36:09.039Z,91.53
2018-11-10T01:38:37.862Z,93.10
2018-11-10T01:41:06.756Z,97.17
2018-11-10T01:43:35.545Z,64.80
2018-11-10T01:46:05.289Z,61.00
2018-11-10T01:48:34.024Z,54.42
2018-11-10T01:51:02.600Z,63.68
2018-11-10T01:53:31.247Z,59.88
2018-11-10T01:55:59.802Z,51.48
2018-11-10T01:58:28.328Z,54.42
2018-11-10T02:00:56.865Z,44.48
2018-11-10T02:03:25.487Z,41.25
2018-11-10T02:05:54.137Z,47.33
2018-11-10T02:08:22.678Z,49.58
2018-11-10T02:10:51.327Z,42.10
2018-11-10T02:13:20.057Z,36.88
2018-11-10T02:15:48.672Z,41.60
2018-11-10T02:18:17.368Z,45.73
2018-11-10T02:20:46.282Z,45.60
2018-11-10T02:23:15.054Z,39.33
2018-11-10T02:25:43.914Z,44.98
2018-11-10T02:28:12.984Z,42.67
2018-11-10T02:30:41.896Z,78.65
2018-11-10T02:33:10.611Z,60.60
2018-11-10T02:35:39.446Z,55.92
2018-11-10T02:38:08.141Z,62.20
2018-11-10T02:40:36.860Z,49.55
2018-11-10T02:43:05.778Z,53.35
2018-11-10T02:45:34.391Z,49.83
2018-11-10T02:48:03.151Z,44.13
2018-11-10T02:50:32.066Z,45.20
2018-11-10T02:53:00.771Z,45.73
2018-11-10T02:55:29.726Z,50.67
2018-11-10T02:57:58.443Z,41.15
2018-11-10T03:00:27.110Z,53.83
2018-11-10T03:02:55.731Z,55.92
2018-11-10T03:05:24.394Z,37.98
2018-11-10T03:07:53.286Z,48.52
2018-11-10T03:10:21.937Z,48.48
2018-11-10T03:12:50.600Z,41.98
2018-11-10T03:15:19.183Z,42.65
2018-11-10T03:17:47.917Z,45.40
2018-11-10T03:20:16.651Z,40.78
2018-11-10T03:22:45.871Z,41.77
2018-11-10T03:25:16.594Z,35.52
2018-11-10T03:27:45.336Z,35.65
2018-11-10T03:30:14.192Z,37.88
2018-11-10T03:32:43.040Z,42.17
2018-11-10T03:35:13.163Z,37.38
2018-11-10T03:37:42.266Z,33.65
2018-11-10T03:40:11.830Z,31.73
2018-11-10T03:42:40.756Z,30.82
2018-11-10T03:45:10.129Z,30.45
2018-11-10T03:47:38.868Z,31.30
2018-11-10T03:50:07.354Z,63.92
2018-11-10T03:52:35.826Z,38.95
2018-11-10T03:55:04.862Z,35.78
2018-11-10T03:57:33.331Z,31.68
2018-11-10T04:00:01.758Z,27.75
2018-11-10T04:02:30.214Z,29.92
2018-11-10T04:04:58.539Z,29.67
2018-11-10T04:07:27.027Z,30.60
2018-11-10T04:09:55.651Z,30.17
2018-11-10T04:12:24.201Z,26.20
2018-11-10T04:14:52.755Z,30.88
2018-11-10T04:17:21.263Z,32.05
2018-11-10T04:19:49.766Z,29.75
2018-11-10T04:22:22.463Z,28.87
2018-11-10T04:24:50.887Z,26.12
2018-11-10T04:27:19.324Z,27.48
2018-11-10T04:29:47.853Z,30.10
2018-11-10T04:32:16.435Z,34.15
2018-11-10T04:34:45.121Z,35.08
2018-11-10T04:37:13.636Z,31.73
2018-11-10T04:39:42.234Z,32.83
2018-11-10T04:42:10.686Z,30.32
2018-11-10T04:44:39.147Z,31.57
2018-11-10T04:47:07.680Z,30.27
2018-11-10T05:35:30.325Z,38.17
2018-11-10T05:37:58.828Z,41.48
2018-11-10T05:40:27.403Z,40.00
2018-11-10T05:42:55.867Z,39.65
2018-11-10T05:45:24.194Z,43.35
2018-11-10T05:47:52.730Z,43.28
2018-11-10T05:50:21.019Z,41.20
2018-11-10T05:52:49.408Z,39.35
2018-11-10T05:55:17.687Z,35.55
2018-11-10T05:57:45.981Z,37.05
2018-11-10T06:00:14.450Z,37.05
2018-11-10T06:02:43.001Z,36.25
2018-11-10T06:05:11.923Z,33.78
2018-11-10T06:07:44.322Z,36.00
2018-11-10T06:10:12.997Z,32.88
2018-11-10T06:12:42.364Z,33.38
2018-11-10T06:15:11.102Z,34.70
2018-11-10T06:17:40.498Z,33.50
2018-11-10T06:20:10.104Z,27.05
2018-11-10T06:22:38.377Z,33.53
2018-11-10T06:25:07.291Z,27.25
2018-11-10T06:27:35.810Z,29.00
2018-11-10T06:30:04.677Z,28.07
2018-11-10T06:32:33.426Z,30.72
2018-11-10T06:35:02.016Z,29.65
2018-11-10T06:37:30.795Z,30.85
2018-11-10T06:40:02.212Z,30.20
2018-11-10T06:42:30.805Z,23.47
2018-11-10T06:45:01.227Z,30.35
2018-11-10T06:47:29.819Z,25.90
2018-11-10T06:49:58.481Z,26.40
2018-11-10T06:52:27.187Z,48.73
2018-11-10T06:54:55.837Z,63.98
2018-11-10T06:57:24.926Z,63.13
2018-11-10T06:59:53.456Z,65.67
2018-11-10T07:02:22.118Z,42.93
2018-11-10T07:04:50.729Z,30.55
2018-11-10T07:07:19.342Z,47.08
2018-11-10T07:09:47.918Z,31.60
2018-11-10T07:12:16.629Z,30.55
2018-11-10T07:14:45.210Z,30.17
2018-11-10T07:17:13.876Z,29.23
2018-11-10T07:19:42.538Z,34.30
2018-11-10T07:22:11.837Z,32.80
2018-11-10T07:24:40.622Z,31.68
2018-11-10T07:27:09.366Z,32.53
2018-11-10T07:29:38.028Z,33.40
2018-11-10T07:32:06.997Z,32.05
2018-11-10T08:56:48.723Z,41.13
2018-11-10T08:59:17.244Z,43.10
2018-11-10T09:01:45.799Z,46.13
2018-11-10T09:04:14.428Z,50.07
2018-11-10T09:09:30.743Z,36.70
2018-11-10T09:11:59.800Z,34.63
2018-11-10T09:14:29.008Z,27.00
2018-11-10T09:16:57.479Z,29.63
2018-11-10T09:19:25.962Z,31.77
2018-11-10T09:21:55.636Z,28.07
2018-11-10T09:24:24.113Z,32.40
2018-11-10T09:26:52.598Z,36.57
2018-11-10T09:29:21.384Z,29.13
2018-11-10T09:31:59.509Z,30.17
2018-11-10T09:34:28.844Z,30.83
2018-11-10T09:36:58.604Z,30.80
2018-11-10T09:39:27.236Z,30.03
2018-11-10T09:41:56.662Z,34.47
2018-11-10T09:44:25.272Z,31.00
2018-11-10T09:46:54.233Z,35.27
2018-11-10T09:49:27.066Z,30.80
2018-11-10T09:51:56.635Z,46.40
2018-11-10T09:57:44.111Z,26.17
2018-11-10T10:00:16.256Z,27.23
2018-11-10T10:02:45.983Z,29.93
2018-11-10T10:05:14.118Z,26.63
2018-11-10T10:07:43.561Z,29.60
2018-11-10T11:49:30.656Z,31.03
2018-11-10T11:51:59.184Z,27.80
2018-11-10T11:54:28.098Z,25.50
2018-11-10T11:57:02.047Z,26.13
2018-11-10T11:59:30.785Z,28.83
2018-11-10T12:01:59.179Z,28.63
2018-11-10T12:04:28.594Z,28.90
2018-11-10T12:06:57.195Z,25.50
2018-11-10T12:09:25.718Z,26.20
2018-11-10T12:11:54.413Z,26.23
2018-11-10T12:14:22.959Z,28.50
2018-11-10T12:16:55.420Z,25.80
2018-11-10T12:19:24.047Z,30.83
2018-11-10T12:21:52.610Z,31.30
2018-11-10T12:24:21.212Z,28.93
2018-11-10T12:26:49.676Z,25.20
2018-11-10T12:29:18.296Z,26.07
2018-11-10T12:31:46.948Z,28.13
2018-11-10T12:34:15.660Z,24.27
2018-11-10T12:36:44.236Z,28.70
2018-11-10T12:39:13.119Z,29.67
2018-11-10T12:41:41.424Z,25.80
2018-11-10T12:44:10.491Z,26.17
2018-11-10T12:46:39.719Z,29.67
2018-11-10T12:49:08.931Z,24.13
2018-11-10T12:51:37.429Z,24.03
2018-11-10T12:54:06.891Z,25.23
2018-11-10T13:11:02.096Z,51.47
2018-11-10T13:13:30.678Z,30.73
2018-11-10T13:15:59.433Z,28.90
2018-11-10T13:18:30.515Z,37.80
2018-11-10T13:21:03.099Z,58.77
2018-11-10T13:23:31.731Z,25.20
2018-11-10T13:26:01.419Z,26.70
2018-11-10T19:37:35.387Z,65.43
2018-11-10T19:40:04.373Z,58.90
2018-11-10T19:42:33.027Z,59.30
2018-11-10T19:47:51.724Z,44.83
2018-11-10T19:50:20.393Z,44.50
2018-11-10T19:52:48.878Z,40.27
2018-11-10T19:55:21.832Z,38.20
2018-11-10T19:57:50.619Z,39.50
2018-11-10T20:00:31.669Z,49.73
2018-11-10T20:03:00.077Z,34.17
2018-11-10T20:05:28.283Z,43.20
2018-11-10T20:07:56.594Z,41.57
2018-11-10T20:10:25.063Z,56.27
2018-11-10T20:12:54.269Z,46.80
2018-11-10T20:15:27.185Z,49.83
2018-11-10T20:18:10.133Z,62.13
2018-11-10T20:23:28.228Z,64.57
2018-11-10T20:25:56.705Z,52.60
2018-11-10T20:28:25.227Z,62.50
2018-11-10T20:30:54.606Z,72.23
2018-11-10T20:33:23.939Z,58.03
2018-11-10T20:35:53.206Z,52.30
2018-11-10T20:38:22.309Z,48.30
2018-11-10T20:40:50.622Z,46.47
2018-11-10T20:43:18.888Z,42.67
2018-11-10T20:45:47.444Z,50.80
2018-11-10T20:48:15.815Z,39.63
2018-11-10T20:50:44.707Z,41.77
2018-11-10T20:53:14.095Z,48.43
2018-11-10T20:55:42.588Z,42.53
2018-11-10T20:58:10.817Z,43.80
2018-11-10T21:00:39.095Z,39.70
2018-11-10T21:11:48.222Z,42.60
2018-11-10T21:14:16.470Z,38.10
2018-11-10T21:16:44.738Z,47.37
2018-11-10T21:19:13.077Z,40.87
2018-11-10T21:21:41.487Z,39.77
2018-11-10T21:24:11.792Z,42.70
2018-11-10T21:26:40.299Z,42.30
2018-11-10T21:29:10.892Z,43.87
2018-11-10T21:31:39.228Z,45.20
2018-11-10T21:34:07.667Z,44.57
2018-11-10T21:36:36.018Z,48.87
2018-11-10T21:39:06.798Z,65.07
2018-11-10T21:41:35.187Z,101.80
2018-11-10T21:44:03.760Z,69.30
2018-11-10T21:46:32.649Z,62.47
2018-11-10T21:49:01.143Z,56.17
2018-11-10T21:51:29.683Z,50.63
2018-11-10T22:06:26.146Z,46.40
2018-11-10T22:11:57.775Z,41.97
2018-11-10T22:14:26.260Z,48.33
2018-11-10T22:16:54.619Z,47.73
2018-11-10T22:19:22.836Z,52.70
2018-11-10T22:21:53.707Z,46.70
2018-11-10T22:24:22.082Z,50.03
2018-11-10T22:26:50.512Z,42.53
2018-11-10T22:29:19.123Z,52.57
2018-11-10T22:31:47.552Z,45.20
2018-11-10T22:34:16.046Z,42.37
2018-11-10T22:36:44.548Z,45.30
2018-11-10T22:39:13.011Z,45.30
2018-11-10T22:41:41.509Z,41.63
2018-11-10T22:44:09.988Z,47.37
2018-11-10T22:46:38.462Z,41.60
2018-11-10T22:49:07.062Z,35.27
2018-11-10T22:51:35.735Z,37.47
2018-11-10T22:54:04.430Z,38.93
2018-11-10T22:56:33.056Z,44.60
2018-11-10T22:59:01.760Z,47.63
2018-11-10T23:01:31.835Z,46.60
2018-11-10T23:04:00.571Z,45.30
2018-11-10T23:06:29.208Z,52.03
2018-11-10T23:08:57.747Z,43.77
2018-11-10T23:11:26.676Z,48.73
2018-11-10T23:13:55.301Z,48.10
2018-11-10T23:16:23.885Z,43.90
2018-11-10T23:18:52.463Z,45.07
2018-11-10T23:21:21.088Z,45.30
2018-11-10T23:23:49.752Z,44.87
2018-11-10T23:26:18.415Z,45.03
2018-11-10T23:28:47.741Z,37.87
2018-11-10T23:31:16.241Z,42.03
2018-11-10T23:33:44.903Z,42.13
2018-11-10T23:36:13.559Z,40.43
2018-11-10T23:38:42.095Z,38.90
2018-11-10T23:41:10.760Z,38.43
2018-11-10T23:43:39.361Z,47.20
2018-11-10T23:46:08.004Z,42.80
2018-11-10T23:48:36.813Z,41.27
2018-11-10T23:51:05.984Z,40.63
2018-11-10T23:53:34.664Z,51.63
2018-11-10T23:56:03.390Z,41.20
2018-11-10T23:58:32.052Z,43.33
